Time;durP1;ratioP1;P1;durP2;ratioP2;P2;SDS_P1;SDS_P2;PMS_P1;PMS_P2;Temp;Humidity;BMP_temperature;BMP_pressure;BME280_temperature;BME280_humidity;BME280_pressure;Samples;Min_cycle;Max_cycle;Signal;HPM_P1;HPM_P2
2023/04/21 00:02:52;;;;;;;37.50;23.38;;;14.00;98.60;;;;;;5092490;28;20036;-75
2023/04/21 00:05:58;;;;;;;35.25;25.08;;;13.80;98.80;;;;;;5092238;28;20526;-75
2023/04/21 00:09:04;;;;;;;32.30;22.13;;;;;;;;;;5092250;28;20043;-75
2023/04/21 00:12:08;;;;;;;41.92;26.20;;;;;;;;;;5092117;28;20043;-75
2023/04/21 00:15:12;;;;;;;36.75;23.73;;;13.80;99.20;;;;;;5092357;28;20051;-75
2023/04/21 00:18:16;;;;;;;37.17;22.45;;;;;;;;;;5091924;28;20038;-75
2023/04/21 00:21:20;;;;;;;43.90;23.50;;;;;;;;;;5092236;28;20051;-75
2023/04/21 00:24:25;;;;;;;33.95;22.02;;;13.70;99.00;;;;;;5092072;28;20399;-75
2023/04/21 00:27:30;;;;;;;34.78;22.23;;;;;;;;;;5091600;28;20059;-75
2023/04/21 00:30:34;;;;;;;33.47;22.15;;;;;;;;;;5091961;28;20059;-75
2023/04/21 00:33:39;;;;;;;52.70;23.50;;;;;;;;;;5091447;28;20043;-75
2023/04/21 00:36:43;;;;;;;35.35;21.65;;;;;;;;;;5090755;28;20039;-75
2023/04/21 00:39:47;;;;;;;38.53;23.33;;;;;;;;;;5091502;28;20501;-75
2023/04/21 00:42:51;;;;;;;38.47;22.50;;;;;;;;;;5090648;28;20051;-75
2023/04/21 00:45:55;;;;;;;34.22;22.65;;;13.70;99.80;;;;;;5091473;28;20051;-75
2023/04/21 00:49:02;;;;;;;32.42;22.33;;;13.40;99.50;;;;;;5091511;28;20391;-75
2023/04/21 00:52:05;;;;;;;30.88;20.85;;;13.40;99.70;;;;;;5090773;28;20071;-75
2023/04/21 00:55:09;;;;;;;36.80;22.65;;;13.30;99.80;;;;;;5090504;28;20047;-75
2023/04/21 00:58:13;;;;;;;36.83;23.42;;;13.40;99.90;;;;;;5091231;28;20047;-75
2023/04/21 01:01:17;;;;;;;39.70;24.45;;;13.60;99.70;;;;;;5091422;28;20043;-75
2023/04/21 01:04:22;;;;;;;38.67;25.50;;;13.40;99.70;;;;;;5090266;28;20063;-75
2023/04/21 01:07:27;;;;;;;33.80;22.08;;;13.30;99.70;;;;;;5090170;28;20047;-75
2023/04/21 01:10:32;;;;;;;32.92;23.33;;;13.20;99.70;;;;;;5091072;28;20039;-75
2023/04/21 01:13:36;;;;;;;33.55;24.13;;;13.20;99.80;;;;;;5090972;28;20047;-74
2023/04/21 01:16:40;;;;;;;34.38;23.60;;;13.00;99.90;;;;;;5090834;28;20043;-75
2023/04/21 01:19:45;;;;;;;37.75;23.98;;;13.30;99.90;;;;;;5091192;28;20070;-75
2023/04/21 01:22:50;;;;;;;34.05;23.15;;;13.30;99.90;;;;;;5091338;28;20047;-74
2023/04/21 01:25:54;;;;;;;32.70;23.45;;;13.30;99.70;;;;;;5090674;28;20067;-75
2023/04/21 01:28:58;;;;;;;34.28;24.45;;;13.20;99.60;;;;;;5089997;28;20231;-74
2023/04/21 01:32:10;;;;;;;36.20;23.85;;;13.20;99.80;;;;;;5091171;28;20511;-75
2023/04/21 01:35:14;;;;;;;35.25;24.75;;;;;;;;;;5091144;28;20035;-75
2023/04/21 01:38:18;;;;;;;34.03;22.02;;;13.70;99.80;;;;;;5089975;28;20031;-75
2023/04/21 01:41:22;;;;;;;34.80;22.42;;;13.10;99.80;;;;;;5091159;28;20570;-75
2023/04/21 01:44:26;;;;;;;32.13;21.50;;;13.00;99.70;;;;;;5090838;28;20043;-75
2023/04/21 01:47:30;;;;;;;29.55;20.95;;;12.40;99.70;;;;;;5092349;28;20051;-75
2023/04/21 01:50:34;;;;;;;30.30;20.65;;;13.60;99.60;;;;;;5094812;28;20067;-75
2023/04/21 01:53:39;;;;;;;31.77;21.15;;;;;;;;;;5093875;28;20407;-75
2023/04/21 01:56:43;;;;;;;29.88;20.13;;;12.90;99.60;;;;;;5093819;28;20043;-75
2023/04/21 01:59:48;;;;;;;37.65;23.00;;;;;;;;;;5093782;28;20047;-75
2023/04/21 02:02:53;;;;;;;38.58;23.75;;;;;;;;;;5093821;28;20047;-75
2023/04/21 02:05:57;;;;;;;32.55;22.38;;;;;;;;;;5094729;28;20039;-75
2023/04/21 02:09:01;;;;;;;36.58;23.45;;;12.40;99.90;;;;;;5094816;28;20047;-75
2023/04/21 02:12:07;;;;;;;36.05;23.52;;;12.50;99.90;;;;;;5093624;28;20384;-75
2023/04/21 02:15:11;;;;;;;36.63;24.05;;;;;;;;;;5094580;28;20114;-75
2023/04/21 02:18:18;;;;;;;36.88;23.70;;;;;;;;;;5093493;28;20035;-75
2023/04/21 02:21:23;;;;;;;40.67;23.42;;;13.00;99.90;;;;;;5094166;28;20051;-75
2023/04/21 02:24:27;;;;;;;37.17;24.88;;;13.00;99.90;;;;;;5093083;28;20047;-75
2023/04/21 02:27:31;;;;;;;33.63;22.65;;;;;;;;;;5093128;28;20514;-75
2023/04/21 02:30:36;;;;;;;36.30;23.30;;;13.00;99.90;;;;;;5093282;28;20043;-75
2023/04/21 02:33:40;;;;;;;36.05;23.05;;;13.00;99.90;;;;;;5093454;28;20047;-75
2023/04/21 02:36:44;;;;;;;36.47;23.55;;;12.90;99.90;;;;;;5093895;28;20047;-75
2023/04/21 02:39:48;;;;;;;36.22;23.00;;;12.70;99.90;;;;;;5093142;28;20102;-75
2023/04/21 02:42:52;;;;;;;38.67;23.40;;;12.50;99.90;;;;;;5094487;28;20039;-75
2023/04/21 02:45:56;;;;;;;33.17;22.63;;;;;;;;;;5093987;28;20114;-75
2023/04/21 02:49:00;;;;;;;33.35;23.35;;;13.20;99.90;;;;;;5092891;28;20043;-75
2023/04/21 02:52:05;;;;;;;36.92;23.35;;;;;;;;;;5093162;28;20039;-75
2023/04/21 02:55:09;;;;;;;37.55;23.48;;;12.60;99.90;;;;;;5092924;28;20047;-75
2023/04/21 02:58:13;;;;;;;35.78;24.30;;;12.20;99.90;;;;;;5092974;28;20042;-75
2023/04/21 03:01:19;;;;;;;36.30;23.40;;;;;;;;;;5093713;28;20051;-75
2023/04/21 03:04:24;;;;;;;35.00;24.23;;;12.50;99.90;;;;;;5092906;28;20043;-75
2023/04/21 03:07:27;;;;;;;36.03;22.80;;;14.30;99.90;;;;;;5093183;28;20050;-75
2023/04/21 03:10:31;;;;;;;33.65;21.58;;;12.40;99.90;;;;;;5092486;28;20043;-75
2023/04/21 03:13:35;;;;;;;39.08;22.67;;;12.20;99.90;;;;;;5092715;28;20055;-75
2023/04/21 03:16:39;;;;;;;31.40;22.38;;;12.30;99.90;;;;;;5093387;28;20043;-75
2023/04/21 03:19:43;;;;;;;35.88;24.38;;;12.30;99.90;;;;;;5093366;28;20051;-75
2023/04/21 03:22:48;;;;;;;33.35;23.20;;;12.40;99.90;;;;;;5092277;28;20134;-75
2023/04/21 03:25:52;;;;;;;35.85;22.85;;;12.40;99.90;;;;;;5092821;28;20071;-75
2023/04/21 03:28:56;;;;;;;35.80;23.80;;;;;;;;;;5092239;28;20051;-75
2023/04/21 03:32:01;;;;;;;40.33;26.33;;;;;;;;;;5092287;28;20043;-75
2023/04/21 03:35:05;;;;;;;38.72;25.77;;;12.30;99.90;;;;;;5092076;28;20042;-75
2023/04/21 03:38:09;;;;;;;38.45;24.00;;;12.70;99.90;;;;;;5092835;28;20047;-75
2023/04/21 03:41:13;;;;;;;36.40;24.52;;;12.40;99.90;;;;;;5091912;28;20042;-75
2023/04/21 03:44:17;;;;;;;35.97;24.95;;;12.40;99.90;;;;;;5092516;28;20043;-75
2023/04/21 03:47:21;;;;;;;34.80;22.25;;;13.70;99.90;;;;;;5092321;28;20055;-75
2023/04/21 03:50:25;;;;;;;30.25;21.52;;;;;;;;;;5091807;28;20063;-75
2023/04/21 03:53:29;;;;;;;33.50;22.50;;;;;;;;;;5092396;28;20043;-75
2023/04/21 03:56:33;;;;;;;33.80;23.13;;;12.60;99.90;;;;;;5092129;28;20035;-75
2023/04/21 03:59:37;;;;;;;37.45;23.23;;;12.40;99.90;;;;;;5092306;28;20392;-75
2023/04/21 04:02:42;;;;;;;40.15;24.08;;;11.60;99.90;;;;;;5092383;28;20392;-75
2023/04/21 04:05:46;;;;;;;36.10;24.08;;;12.20;99.90;;;;;;5092476;28;20047;-75
2023/04/21 04:08:50;;;;;;;37.08;23.75;;;12.20;99.90;;;;;;5091523;28;20514;-75
2023/04/21 04:11:54;;;;;;;43.67;30.77;;;12.30;99.90;;;;;;5092263;28;20043;-75
2023/04/21 04:14:59;;;;;;;38.50;25.75;;;;;;;;;;5092052;28;20478;-75
2023/04/21 04:18:03;;;;;;;39.22;25.15;;;12.30;99.90;;;;;;5092209;28;20039;-75
2023/04/21 04:21:07;;;;;;;37.42;23.77;;;;;;;;;;5091993;28;20047;-75
2023/04/21 04:24:12;;;;;;;41.08;28.50;;;12.30;99.90;;;;;;5092038;28;20202;-75
2023/04/21 04:27:16;;;;;;;37.90;27.05;;;12.20;99.90;;;;;;5091726;28;20537;-75
2023/04/21 04:30:22;;;;;;;34.85;24.10;;;12.30;99.90;;;;;;5091856;28;20047;-75
2023/04/21 04:33:26;;;;;;;38.45;24.60;;;12.40;99.90;;;;;;5091886;28;20047;-75
2023/04/21 04:36:31;;;;;;;42.63;25.50;;;12.50;99.90;;;;;;5091698;28;20069;-75
2023/04/21 04:39:35;;;;;;;43.92;26.45;;;12.60;99.90;;;;;;5091883;28;20035;-75
2023/04/21 04:42:40;;;;;;;96.93;53.38;;;12.70;99.90;;;;;;5091631;28;20059;-75
2023/04/21 04:45:44;;;;;;;184.88;107.28;;;12.60;99.90;;;;;;5091516;28;20039;-75
2023/04/21 04:48:49;;;;;;;181.27;107.00;;;;;;;;;;5091387;28;20051;-75
2023/04/21 04:51:53;;;;;;;127.72;75.00;;;;;;;;;;5091428;28;20035;-75
2023/04/21 04:54:57;;;;;;;89.35;54.67;;;12.80;99.90;;;;;;5091560;28;20063;-74
2023/04/21 04:58:02;;;;;;;82.93;47.05;;;;;;;;;;5091094;28;20040;-74
2023/04/21 05:01:16;;;;;;;73.70;42.10;;;13.70;99.90;;;;;;5091376;28;20055;-75
2023/04/21 05:04:20;;;;;;;59.22;33.75;;;;;;;;;;5091277;28;20442;-75
2023/04/21 05:07:25;;;;;;;38.03;23.83;;;;;;;;;;5091294;28;20407;-75
2023/04/21 05:10:29;;;;;;;45.00;25.73;;;;;;;;;;5091716;28;20043;-74
2023/04/21 05:13:33;;;;;;;49.33;34.17;;;13.70;99.90;;;;;;5091335;28;20047;-75
2023/04/21 05:16:37;;;;;;;57.25;33.55;;;;;;;;;;5090570;28;20047;-73
2023/04/21 05:19:41;;;;;;;48.05;31.02;;;;;;;;;;5090402;28;20043;-61
2023/04/21 05:22:45;;;;;;;44.47;29.95;;;11.40;99.50;;;;;;5091452;28;20043;-61
2023/04/21 05:25:50;;;;;;;40.25;23.60;;;;;;;;;;5091073;28;20059;-61
2023/04/21 05:28:55;;;;;;;38.47;18.30;;;14.60;99.60;;;;;;5090786;28;20091;-61
2023/04/21 05:31:59;;;;;;;30.67;16.52;;;14.70;98.10;;;;;;5090954;28;20043;-61
2023/04/21 05:35:04;;;;;;;27.25;16.60;;;;;;;;;;5091032;28;20059;-61
2023/04/21 05:38:07;;;;;;;30.45;17.23;;;15.70;98.90;;;;;;5090960;28;20047;-61
2023/04/21 05:41:12;;;;;;;31.75;16.73;;;;;;;;;;5090989;28;20364;-61
2023/04/21 05:44:17;;;;;;;37.83;17.58;;;;;;;;;;5090604;28;20055;-61
2023/04/21 05:47:21;;;;;;;31.67;17.27;;;;;;;;;;5090568;28;20051;-61
2023/04/21 05:50:32;;;;;;;32.28;18.42;;;15.10;98.50;;;;;;5090998;28;20387;-61
2023/04/21 05:53:37;;;;;;;32.90;19.27;;;15.30;97.50;;;;;;5090709;28;20039;-62
2023/04/21 05:56:41;;;;;;;35.15;21.20;;;15.30;97.70;;;;;;5090424;28;20055;-61
2023/04/21 05:59:45;;;;;;;44.13;25.65;;;15.70;97.20;;;;;;5090572;28;20046;-61
2023/04/21 06:02:49;;;;;;;47.25;29.63;;;15.90;97.00;;;;;;5090885;28;20190;-62
2023/04/21 06:05:57;;;;;;;47.47;27.48;;;16.20;96.60;;;;;;5089646;28;20058;-61
2023/04/21 06:09:01;;;;;;;47.00;25.88;;;16.30;96.40;;;;;;5090262;28;20059;-62
2023/04/21 06:12:05;;;;;;;40.83;24.98;;;16.30;96.80;;;;;;5090454;28;20497;-62
2023/04/21 06:15:09;;;;;;;51.50;26.92;;;16.60;96.40;;;;;;5090352;28;20039;-62
2023/04/21 06:18:14;;;;;;;36.53;24.88;;;16.80;96.10;;;;;;5090450;28;20040;-62
2023/04/21 06:21:19;;;;;;;41.78;27.40;;;17.00;96.00;;;;;;5090702;28;20055;-62
2023/04/21 06:24:24;;;;;;;49.22;28.33;;;17.00;96.20;;;;;;5090544;28;20067;-62
2023/04/21 06:27:28;;;;;;;48.28;29.70;;;17.00;96.20;;;;;;5090063;28;20059;-62
2023/04/21 06:30:32;;;;;;;46.70;32.97;;;17.40;96.20;;;;;;5090143;28;20039;-62
2023/04/21 06:33:36;;;;;;;45.25;30.45;;;17.80;95.40;;;;;;5092796;28;20390;-62
2023/04/21 06:36:40;;;;;;;47.08;29.80;;;18.00;95.10;;;;;;5093826;28;20383;-62
2023/04/21 06:39:44;;;;;;;49.92;30.50;;;18.30;94.70;;;;;;5093816;28;20039;-62
2023/04/21 06:42:48;;;;;;;46.70;29.88;;;18.50;94.20;;;;;;5093684;28;20506;-62
2023/04/21 06:45:51;;;;;;;44.45;27.25;;;18.50;93.80;;;;;;5093616;28;20047;-62
2023/04/21 06:48:56;;;;;;;43.10;27.10;;;18.60;94.00;;;;;;5093590;28;20102;-62
2023/04/21 06:52:00;;;;;;;43.13;28.00;;;18.50;94.00;;;;;;5093899;28;20058;-62
2023/04/21 06:55:04;;;;;;;47.72;27.85;;;18.60;93.70;;;;;;5093929;28;20047;-62
2023/04/21 06:58:08;;;;;;;48.15;28.48;;;18.30;93.90;;;;;;5093485;28;20059;-62
2023/04/21 07:01:12;;;;;;;43.78;27.73;;;18.30;94.10;;;;;;5093425;28;20498;-62
2023/04/21 07:04:16;;;;;;;46.58;28.70;;;18.40;94.30;;;;;;5092929;28;20047;-62
2023/04/21 07:07:21;;;;;;;41.65;28.15;;;18.50;94.10;;;;;;5093288;28;20055;-62
2023/04/21 07:10:26;;;;;;;49.25;30.40;;;18.40;94.00;;;;;;5093207;28;20047;-62
2023/04/21 07:13:30;;;;;;;46.47;31.63;;;18.60;94.20;;;;;;5093134;28;20039;-63
2023/04/21 07:16:34;;;;;;;51.03;31.83;;;18.50;94.30;;;;;;5092724;28;20598;-62
2023/04/21 07:19:38;;;;;;;51.33;29.83;;;18.50;94.50;;;;;;5093253;28;20526;-62
2023/04/21 07:22:43;;;;;;;41.22;27.40;;;18.80;94.70;;;;;;5093083;28;20064;-62
2023/04/21 07:25:46;;;;;;;36.22;25.05;;;19.20;94.00;;;;;;5092537;28;20158;-62
2023/04/21 07:28:51;;;;;;;41.05;27.45;;;19.40;93.20;;;;;;5092983;28;20047;-63
2023/04/21 07:31:57;;;;;;;36.72;24.88;;;19.40;92.90;;;;;;5093124;28;20435;-63
2023/04/21 07:35:01;;;;;;;39.35;24.70;;;19.40;93.30;;;;;;5092750;28;20039;-63
2023/04/21 07:38:05;;;;;;;48.78;26.25;;;19.40;93.30;;;;;;5092623;28;20051;-62
2023/04/21 07:41:10;;;;;;;40.05;24.00;;;19.50;93.60;;;;;;5092688;28;20051;-62
2023/04/21 07:44:14;;;;;;;37.05;23.35;;;19.60;93.50;;;;;;5092483;28;20395;-62
2023/04/21 07:47:18;;;;;;;38.33;25.73;;;19.70;93.40;;;;;;5092542;28;20039;-62
2023/04/21 07:50:22;;;;;;;50.90;27.38;;;19.80;93.30;;;;;;5092511;28;20047;-63
2023/04/21 07:53:26;;;;;;;43.28;25.13;;;19.80;93.00;;;;;;5092319;28;20495;-63
2023/04/21 07:56:30;;;;;;;32.78;20.83;;;19.80;93.20;;;;;;5092058;28;20042;-62
2023/04/21 07:59:34;;;;;;;24.90;17.83;;;20.00;92.90;;;;;;5092390;28;20043;-62
2023/04/21 08:02:38;;;;;;;28.10;16.45;;;20.20;92.40;;;;;;5092409;28;20051;-62
2023/04/21 08:05:42;;;;;;;25.52;16.40;;;20.40;91.60;;;;;;5092198;28;20190;-62
2023/04/21 08:08:46;;;;;;;26.33;18.30;;;20.70;91.40;;;;;;5091614;28;20055;-61
2023/04/21 08:11:50;;;;;;;43.00;17.38;;;20.90;91.20;;;;;;5091779;28;20047;-62
2023/04/21 08:14:54;;;;;;;29.92;16.90;;;21.20;90.50;;;;;;5091675;28;20399;-61
2023/04/21 08:17:58;;;;;;;24.45;16.27;;;21.30;90.00;;;;;;5090897;28;20043;-61
2023/04/21 08:21:02;;;;;;;28.58;15.32;;;21.30;89.90;;;;;;5091100;28;20506;-61
2023/04/21 08:24:06;;;;;;;17.85;11.40;;;21.30;88.50;;;;;;5091272;28;20047;-61
2023/04/21 08:27:09;;;;;;;19.77;12.05;;;21.30;88.40;;;;;;5090554;28;20121;-61
2023/04/21 08:30:14;;;;;;;18.20;10.13;;;21.20;86.50;;;;;;5091970;28;20051;-62
2023/04/21 08:33:18;;;;;;;15.05;10.32;;;21.10;86.70;;;;;;5091939;28;20051;-62
2023/04/21 08:36:22;;;;;;;12.05;8.18;;;20.90;85.60;;;;;;5090713;28;20039;-62
2023/04/21 08:39:25;;;;;;;23.10;9.52;;;20.70;86.10;;;;;;5091741;28;20227;-62
2023/04/21 08:42:29;;;;;;;13.77;8.18;;;20.50;86.60;;;;;;5091404;28;20043;-62
2023/04/21 08:45:34;;;;;;;22.20;10.85;;;20.40;87.50;;;;;;5090409;28;20035;-62
2023/04/21 08:48:38;;;;;;;14.63;10.73;;;20.30;87.70;;;;;;5091289;28;20055;-62
2023/04/21 08:51:42;;;;;;;10.50;8.82;;;20.20;87.90;;;;;;5091405;28;20063;-62
2023/04/21 08:54:52;;;;;;;14.70;10.45;;;20.30;88.40;;;;;;5091281;28;20090;-62
2023/04/21 08:57:56;;;;;;;19.60;11.15;;;20.60;88.60;;;;;;5090921;28;20039;-62
2023/04/21 09:01:00;;;;;;;11.65;8.32;;;20.90;87.70;;;;;;5091044;28;20035;-60
2023/04/21 09:04:15;;;;;;;11.57;8.52;;;21.10;86.50;;;;;;5091074;28;20489;-62
2023/04/21 09:07:34;;;;;;;16.92;8.27;;;21.30;84.30;;;;;;5091111;28;20050;-62
2023/04/21 09:10:47;;;;;;;9.43;6.10;;;21.40;82.50;;;;;;5091244;28;20050;-61
2023/04/21 09:13:56;;;;;;;9.30;5.82;;;21.50;82.40;;;;;;5091281;28;20047;-61
2023/04/21 09:17:02;;;;;;;10.40;6.18;;;21.70;80.70;;;;;;5091087;28;20042;-61
2023/04/21 09:20:18;;;;;;;8.95;5.35;;;21.70;79.60;;;;;;5090916;28;20055;-61
2023/04/21 09:23:22;;;;;;;16.05;8.60;;;21.70;79.90;;;;;;5090949;28;20036;-62
2023/04/21 09:26:26;;;;;;;14.18;6.78;;;21.80;79.30;;;;;;5090734;28;20063;-61
2023/04/21 09:29:30;;;;;;;10.43;6.35;;;21.90;79.60;;;;;;5090860;28;20055;-61
2023/04/21 09:32:38;;;;;;;10.02;6.15;;;22.00;80.20;;;;;;5090678;28;20391;-62
2023/04/21 09:35:42;;;;;;;9.88;5.00;;;22.10;79.80;;;;;;5090854;28;20514;-61
2023/04/21 09:38:56;;;;;;;13.05;6.60;;;22.10;77.10;;;;;;5090761;28;20051;-61
2023/04/21 09:42:01;;;;;;;9.88;5.47;;;22.10;76.60;;;;;;5090442;28;20043;-61
2023/04/21 09:45:05;;;;;;;11.35;5.55;;;22.00;77.50;;;;;;5090883;28;20048;-61
2023/04/21 09:48:11;;;;;;;9.10;5.18;;;22.10;78.10;;;;;;5089820;28;20051;-61
2023/04/21 09:51:16;;;;;;;12.30;6.00;;;22.20;77.80;;;;;;5090512;28;20036;-61
2023/04/21 09:54:27;;;;;;;5.88;4.70;;;22.30;75.60;;;;;;5090648;28;20039;-61
2023/04/21 09:57:36;;;;;;;11.47;6.40;;;22.30;75.70;;;;;;5090248;28;20047;-63
2023/04/21 10:00:41;;;;;;;8.50;5.63;;;22.40;75.60;;;;;;5090804;28;20047;-62
2023/04/21 10:03:48;;;;;;;11.77;6.70;;;22.50;74.80;;;;;;5090353;28;20036;-62
2023/04/21 10:06:52;;;;;;;8.85;6.25;;;22.50;74.70;;;;;;5089971;28;20063;-62
2023/04/21 10:09:58;;;;;;;9.13;6.38;;;22.60;76.10;;;;;;5092984;28;20403;-62
2023/04/21 10:13:02;;;;;;;13.95;7.18;;;22.70;75.40;;;;;;5094593;28;20395;-62
2023/04/21 10:16:09;;;;;;;13.13;6.50;;;22.60;74.40;;;;;;5093802;28;20047;-62
2023/04/21 10:19:24;;;;;;;11.32;6.10;;;22.60;75.20;;;;;;5094023;28;20047;-62
2023/04/21 10:22:33;;;;;;;10.80;5.85;;;22.60;74.70;;;;;;5094051;28;20039;-62
2023/04/21 10:25:38;;;;;;;10.65;6.43;;;22.80;75.60;;;;;;5093658;28;20123;-62
2023/04/21 10:28:54;;;;;;;11.32;6.25;;;22.90;75.20;;;;;;5093973;28;20055;-62
2023/04/21 10:31:57;;;;;;;7.68;5.70;;;23.00;75.30;;;;;;5094170;28;20051;-62
2023/04/21 10:35:02;;;;;;;10.52;6.15;;;23.10;74.20;;;;;;5094176;28;20390;-62
2023/04/21 10:38:06;;;;;;;8.15;5.43;;;23.10;73.70;;;;;;5094116;28;20047;-61
2023/04/21 10:41:27;;;;;;;12.98;6.82;;;23.20;73.30;;;;;;5093910;28;20036;-62
2023/04/21 10:44:31;;;;;;;13.55;6.78;;;23.20;74.20;;;;;;5093868;28;20047;-62
2023/04/21 10:47:37;;;;;;;11.80;6.45;;;23.30;73.80;;;;;;5093561;28;20395;-61
2023/04/21 10:50:43;;;;;;;12.15;6.63;;;23.30;74.10;;;;;;5093956;28;20043;-61
2023/04/21 10:53:46;;;;;;;11.90;7.03;;;23.40;75.30;;;;;;5093772;28;20047;-61
2023/04/21 10:56:52;;;;;;;8.25;5.85;;;23.40;74.60;;;;;;5093392;28;20526;-62
2023/04/21 10:59:56;;;;;;;10.30;5.80;;;23.40;72.90;;;;;;5093488;28;20663;-62
2023/04/21 11:03:02;;;;;;;7.38;5.25;;;23.40;70.00;;;;;;5093611;28;20051;-61
2023/04/21 11:06:17;;;;;;;8.90;5.85;;;23.30;71.20;;;;;;5093522;28;20047;-61
2023/04/21 11:09:21;;;;;;;15.88;9.35;;;23.30;73.00;;;;;;5093449;28;20055;-61
2023/04/21 11:12:30;;;;;;;12.05;7.93;;;23.30;72.10;;;;;;5093521;28;20039;-61
2023/04/21 11:15:34;;;;;;;16.45;11.68;;;23.20;71.80;;;;;;5093476;28;20043;-61
2023/04/21 11:18:40;;;;;;;12.48;9.57;;;23.10;76.10;;;;;;5092962;28;20503;-62
2023/04/21 11:21:47;;;;;;;16.48;11.75;;;23.20;76.20;;;;;;5093540;28;20047;-62
2023/04/21 11:24:56;;;;;;;22.92;13.25;;;23.20;77.90;;;;;;5093433;28;20051;-62
2023/04/21 11:28:00;;;;;;;23.77;14.30;;;23.20;79.40;;;;;;5093160;28;20043;-62
2023/04/21 11:31:04;;;;;;;23.52;13.48;;;23.20;78.60;;;;;;5092887;28;20391;-62
2023/04/21 11:34:09;;;;;;;23.63;14.02;;;23.20;79.30;;;;;;5092880;28;20042;-62
2023/04/21 11:37:24;;;;;;;22.23;13.77;;;23.20;79.20;;;;;;5093019;28;20510;-62
2023/04/21 11:40:29;;;;;;;18.42;12.13;;;23.20;79.20;;;;;;5092761;28;20043;-62
2023/04/21 11:43:33;;;;;;;19.02;13.55;;;23.20;78.80;;;;;;5092589;28;20059;-62
2023/04/21 11:46:43;;;;;;;23.20;11.93;;;23.20;78.50;;;;;;5092577;28;20043;-62
2023/04/21 11:49:48;;;;;;;20.47;12.90;;;23.20;79.90;;;;;;5092517;28;20513;-61
2023/04/21 11:52:52;;;;;;;19.90;11.88;;;23.30;79.50;;;;;;5092602;28;20043;-61
2023/04/21 11:55:56;;;;;;;21.27;11.18;;;23.30;79.60;;;;;;5092670;28;20054;-61
2023/04/21 11:59:00;;;;;;;17.15;10.82;;;23.30;78.70;;;;;;5092310;28;20047;-61
2023/04/21 12:02:04;;;;;;;16.60;11.32;;;23.30;78.10;;;;;;5092247;28;20051;-61
2023/04/21 12:05:10;;;;;;;22.15;11.88;;;23.30;77.80;;;;;;5092627;28;20039;-61
2023/04/21 12:08:17;;;;;;;17.00;11.32;;;23.30;78.70;;;;;;5092124;28;20051;-61
2023/04/21 12:11:25;;;;;;;14.05;10.20;;;23.40;78.40;;;;;;5092087;28;20035;-61
2023/04/21 12:14:32;;;;;;;16.05;8.43;;;23.30;78.50;;;;;;5092214;28;20046;-61
2023/04/21 12:17:38;;;;;;;16.27;9.40;;;23.40;77.80;;;;;;5090903;28;20046;-60
2023/04/21 12:20:52;;;;;;;13.55;8.88;;;23.40;77.60;;;;;;5091501;28;20035;-60
2023/04/21 12:23:56;;;;;;;14.45;8.95;;;23.30;77.50;;;;;;5091795;28;20050;-60
2023/04/21 12:27:01;;;;;;;12.00;7.97;;;23.30;77.20;;;;;;5091697;28;20051;-61
2023/04/21 12:30:06;;;;;;;17.73;9.15;;;23.30;77.20;;;;;;5091167;28;20055;-61
2023/04/21 12:33:10;;;;;;;12.25;7.72;;;23.30;77.30;;;;;;5091920;28;20391;-61
2023/04/21 12:36:15;;;;;;;10.18;6.72;;;23.30;76.50;;;;;;5091960;28;20118;-61
2023/04/21 12:39:19;;;;;;;15.55;6.88;;;23.30;76.70;;;;;;5091688;28;20402;-61
2023/04/21 12:42:23;;;;;;;13.98;7.07;;;23.30;76.10;;;;;;5091869;28;20050;-61
2023/04/21 12:45:47;;;;;;;15.40;7.30;;;23.20;75.10;;;;;;5091418;28;20050;-61
2023/04/21 12:48:54;;;;;;;12.63;6.45;;;23.20;74.40;;;;;;5091488;28;20407;-61
2023/04/21 12:51:59;;;;;;;11.20;6.90;;;23.20;75.30;;;;;;5091349;28;20494;-61
2023/04/21 12:55:03;;;;;;;11.27;7.00;;;23.20;75.10;;;;;;5091304;28;20051;-61
2023/04/21 12:58:07;;;;;;;15.65;7.18;;;23.10;75.20;;;;;;5091294;28;20051;-61
2023/04/21 13:01:13;;;;;;;7.90;5.90;;;23.10;74.20;;;;;;5090085;28;20031;-61
2023/04/21 13:04:17;;;;;;;9.00;6.00;;;23.10;73.70;;;;;;5091397;28;20047;-61
2023/04/21 13:07:25;;;;;;;12.73;5.93;;;23.00;74.40;;;;;;5090094;28;20051;-62
2023/04/21 13:10:29;;;;;;;8.43;6.00;;;23.10;74.70;;;;;;5091284;28;20047;-61
2023/04/21 13:13:33;;;;;;;9.95;5.80;;;23.10;74.10;;;;;;5091295;28;20036;-60
2023/04/21 13:16:37;;;;;;;9.98;6.03;;;23.10;73.40;;;;;;5090752;28;20051;-61
2023/04/21 13:19:41;;;;;;;8.63;6.40;;;23.00;74.80;;;;;;5090863;28;20062;-61
2023/04/21 13:22:45;;;;;;;12.38;6.40;;;23.00;75.30;;;;;;5091122;28;20367;-61
2023/04/21 13:25:49;;;;;;;8.43;6.30;;;23.00;76.30;;;;;;5090563;28;20055;-61
2023/04/21 13:28:56;;;;;;;10.68;6.50;;;23.00;75.70;;;;;;5090684;28;20052;-61
2023/04/21 13:32:05;;;;;;;8.00;5.35;;;23.00;76.00;;;;;;5091176;28;20058;-61
2023/04/21 13:35:09;;;;;;;12.52;6.60;;;23.00;75.60;;;;;;5090658;28;20047;-60
2023/04/21 13:38:14;;;;;;;9.25;6.80;;;22.90;75.70;;;;;;5090682;28;20039;-61
2023/04/21 13:41:18;;;;;;;15.45;6.72;;;22.90;76.10;;;;;;5091179;28;20051;-61
2023/04/21 13:44:22;;;;;;;13.75;7.00;;;22.90;76.70;;;;;;5094842;28;20039;-61
2023/04/21 13:47:26;;;;;;;12.20;6.20;;;22.80;76.90;;;;;;5094891;28;20506;-61
2023/04/21 13:50:31;;;;;;;8.82;6.00;;;22.80;77.30;;;;;;5094657;28;20043;-61
2023/04/21 13:53:35;;;;;;;7.85;5.10;;;22.80;76.40;;;;;;5094679;28;20043;-60
2023/04/21 13:56:39;;;;;;;10.63;5.32;;;22.80;76.20;;;;;;5094649;28;20065;-60
2023/04/21 13:59:43;;;;;;;7.40;4.50;;;22.80;75.60;;;;;;5093673;28;20498;-60
2023/04/21 14:02:47;;;;;;;8.02;5.50;;;22.80;75.70;;;;;;5094686;28;20039;-60
2023/04/21 14:05:51;;;;;;;13.63;5.88;;;22.80;75.50;;;;;;5094282;28;20471;-62
2023/04/21 14:08:55;;;;;;;8.75;4.85;;;22.70;75.00;;;;;;5094187;28;20646;-60
2023/04/21 14:12:00;;;;;;;6.88;5.03;;;22.70;75.70;;;;;;5094709;28;20526;-60
2023/04/21 14:15:07;;;;;;;7.05;4.80;;;22.70;75.80;;;;;;5094481;28;20036;-61
2023/04/21 14:18:12;;;;;;;9.02;4.63;;;22.70;75.50;;;;;;5094249;28;20040;-61
2023/04/21 14:21:16;;;;;;;12.65;5.15;;;22.70;75.70;;;;;;5081622;28;20502;-60
2023/04/21 14:24:20;;;;;;;9.27;4.70;;;22.70;75.30;;;;;;5094208;28;20059;-60
2023/04/21 14:27:24;;;;;;;6.65;4.75;;;22.70;75.80;;;;;;5093777;28;20471;-61
2023/04/21 14:30:28;;;;;;;9.80;5.63;;;22.80;75.50;;;;;;5092825;28;20069;-61
2023/04/21 14:33:32;;;;;;;11.23;5.25;;;22.70;75.40;;;;;;5093408;28;20036;-61
2023/04/21 14:36:36;;;;;;;6.32;4.88;;;22.70;75.40;;;;;;5093861;28;20051;-61
2023/04/21 14:39:40;;;;;;;10.57;5.22;;;22.60;75.20;;;;;;5093615;28;20039;-61
2023/04/21 14:42:44;;;;;;;10.88;6.03;;;22.60;75.30;;;;;;5093961;28;20498;-61
2023/04/21 14:45:48;;;;;;;9.18;5.38;;;22.60;76.40;;;;;;5093809;28;20043;-61
2023/04/21 14:48:52;;;;;;;12.57;6.65;;;22.60;75.80;;;;;;5093705;28;20055;-60
2023/04/21 14:51:57;;;;;;;7.82;5.28;;;22.50;76.50;;;;;;5093626;28;20066;-61
2023/04/21 14:55:02;;;;;;;12.30;5.28;;;22.50;76.70;;;;;;5092916;28;20511;-61
2023/04/21 14:58:06;;;;;;;9.93;5.30;;;22.50;76.40;;;;;;5093481;28;20119;-60
2023/04/21 15:01:11;;;;;;;9.02;5.07;;;22.40;74.80;;;;;;5093502;28;20379;-60
2023/04/21 15:04:15;;;;;;;9.43;4.60;;;22.30;75.00;;;;;;5093338;28;20044;-60
2023/04/21 15:07:19;;;;;;;6.65;4.43;;;22.20;74.00;;;;;;5093044;28;20039;-60
2023/04/21 15:10:23;;;;;;;9.68;3.88;;;22.20;75.10;;;;;;5093602;28;20063;-62
2023/04/21 15:13:27;;;;;;;6.20;3.78;;;22.20;74.50;;;;;;5093191;28;20049;-62
2023/04/21 15:16:31;;;;;;;8.95;3.88;;;22.10;73.40;;;;;;5093034;28;20423;-63
2023/04/21 15:19:35;;;;;;;5.53;4.00;;;22.10;73.70;;;;;;5093430;28;20043;-62
2023/04/21 15:22:40;;;;;;;7.13;3.40;;;22.10;73.10;;;;;;5093071;28;20036;-61
2023/04/21 15:25:44;;;;;;;6.05;4.30;;;22.10;73.00;;;;;;5092741;28;20055;-62
2023/04/21 15:28:48;;;;;;;6.78;4.05;;;22.10;73.10;;;;;;5093000;28;20053;-59
2023/04/21 15:31:52;;;;;;;7.90;3.83;;;22.00;73.00;;;;;;5093043;28;20032;-60
2023/04/21 15:34:56;;;;;;;8.88;4.18;;;22.10;73.90;;;;;;5092400;28;20512;-61
2023/04/21 15:38:00;;;;;;;5.32;3.65;;;22.00;74.00;;;;;;5091845;28;20036;-61
2023/04/21 15:41:04;;;;;;;5.18;3.60;;;22.00;73.70;;;;;;5092750;28;20503;-59
2023/04/21 15:44:09;;;;;;;7.47;3.97;;;22.00;73.20;;;;;;5092269;28;20032;-60
2023/04/21 15:47:15;;;;;;;3.88;3.30;;;22.00;73.10;;;;;;5092019;28;20040;-58
2023/04/21 15:50:19;;;;;;;8.82;3.50;;;22.00;73.70;;;;;;5092179;28;20610;-60
2023/04/21 15:53:23;;;;;;;7.97;4.30;;;22.00;73.90;;;;;;5092587;28;20043;-60
2023/04/21 15:56:27;;;;;;;7.32;4.72;;;22.00;76.90;;;;;;5092136;28;20039;-60
2023/04/21 15:59:31;;;;;;;5.15;4.10;;;22.00;77.20;;;;;;5092111;28;20146;-61
2023/04/21 16:02:35;;;;;;;8.63;4.20;;;21.90;77.70;;;;;;5091381;28;20048;-60